createdAt,value
2022-09-13T00:01:28.653Z,15.46
2022-09-13T00:03:55.606Z,15.96
2022-09-13T00:06:22.695Z,15.92
2022-09-13T00:08:50.505Z,15.94
2022-09-13T00:11:20.715Z,15.76
2022-09-13T00:13:47.843Z,15.57
2022-09-13T00:16:16.812Z,15.70
2022-09-13T00:18:43.890Z,15.67
2022-09-13T00:21:14.051Z,15.67
2022-09-13T00:23:43.408Z,15.59
2022-09-13T00:26:21.420Z,15.28
2022-09-13T00:28:52.294Z,15.07
2022-09-13T00:31:19.883Z,15.36
2022-09-13T00:33:46.607Z,15.29
2022-09-13T00:36:15.439Z,15.36
2022-09-13T00:38:43.518Z,15.34
2022-09-13T00:41:18.299Z,14.85
2022-09-13T00:43:57.452Z,15.23
2022-09-13T00:46:40.071Z,15.12
2022-09-13T00:49:22.324Z,14.69
2022-09-13T00:51:58.649Z,15.08
2022-09-13T00:54:31.153Z,14.95
2022-09-13T00:57:02.210Z,14.50
2022-09-13T00:59:33.835Z,14.64
2022-09-13T01:02:02.188Z,14.92
2022-09-13T01:04:32.666Z,14.83
2022-09-13T01:07:02.477Z,14.62
2022-09-13T01:09:33.005Z,14.28
2022-09-13T01:12:25.723Z,14.77
2022-09-13T01:14:53.399Z,14.35
2022-09-13T01:17:20.012Z,14.75
2022-09-13T01:19:46.740Z,13.18
2022-09-13T01:22:13.255Z,14.65
2022-09-13T01:25:09.148Z,14.63
2022-09-13T01:28:10.074Z,14.62
2022-09-13T01:30:43.257Z,13.96
2022-09-13T01:33:39.538Z,13.54
2022-09-13T01:36:28.258Z,13.70
2022-09-13T01:39:02.933Z,13.50
2022-09-13T01:41:48.254Z,13.75
2022-09-13T01:44:23.055Z,13.22
2022-09-13T01:47:10.948Z,13.84
2022-09-13T01:49:40.443Z,13.85
2022-09-13T01:52:13.003Z,13.91
2022-09-13T01:55:06.623Z,13.53
2022-09-13T01:57:38.428Z,13.26
2022-09-13T02:00:15.142Z,13.04
2022-09-13T02:03:41.060Z,13.36
2022-09-13T02:06:33.022Z,13.32
2022-09-13T02:09:09.936Z,13.14
2022-09-13T02:11:41.025Z,13.43
2022-09-13T02:14:11.522Z,13.49
2022-09-13T02:16:43.575Z,13.41
2022-09-13T02:19:25.517Z,13.35
2022-09-13T02:21:57.846Z,13.46
2022-09-13T02:24:37.463Z,12.57
2022-09-13T02:27:09.319Z,12.82
2022-09-13T02:29:40.090Z,12.95
2022-09-13T02:32:16.767Z,13.07
2022-09-13T02:34:52.541Z,13.22
2022-09-13T02:37:20.188Z,13.18
2022-09-13T02:40:02.876Z,13.24
2022-09-13T02:42:43.802Z,13.22
2022-09-13T02:45:13.908Z,13.28
2022-09-13T02:48:03.184Z,13.37
2022-09-13T02:51:07.688Z,13.43
2022-09-13T02:53:56.064Z,13.25
2022-09-13T02:56:49.546Z,13.22
2022-09-13T02:59:20.320Z,12.98
2022-09-13T03:02:14.301Z,13.25
2022-09-13T03:04:40.841Z,13.20
2022-09-13T03:07:12.040Z,13.08
2022-09-13T03:09:46.651Z,13.06
2022-09-13T03:12:34.787Z,13.11
2022-09-13T03:15:21.024Z,12.66
2022-09-13T03:18:06.359Z,12.67
2022-09-13T03:20:38.969Z,12.58
2022-09-13T03:23:24.896Z,12.50
2022-09-13T03:26:20.126Z,12.57
2022-09-13T03:29:01.351Z,12.44
2022-09-13T03:31:57.233Z,12.07
2022-09-13T03:34:56.958Z,12.45
2022-09-13T03:37:26.431Z,12.15
2022-09-13T03:40:18.665Z,11.89
2022-09-13T03:42:53.917Z,11.69
2022-09-13T03:45:26.336Z,11.72
2022-09-13T03:47:54.967Z,11.70
2022-09-13T03:50:24.247Z,12.16
2022-09-13T03:52:56.776Z,12.10
2022-09-13T03:55:23.731Z,12.17
2022-09-13T03:57:50.339Z,12.10
2022-09-13T04:00:18.261Z,12.24
2022-09-13T04:02:45.431Z,11.92
2022-09-13T04:05:12.160Z,12.38
2022-09-13T04:07:38.721Z,12.39
2022-09-13T04:10:06.126Z,12.38
2022-09-13T04:12:32.700Z,11.82
2022-09-13T04:14:59.353Z,12.42
2022-09-13T04:17:25.970Z,12.46
2022-09-13T04:19:52.504Z,12.28
2022-09-13T04:22:19.295Z,12.30
2022-09-13T04:24:46.521Z,12.71
2022-09-13T04:27:13.285Z,12.76
2022-09-13T04:29:39.875Z,12.35
2022-09-13T04:32:06.636Z,9.80
2022-09-13T04:34:33.227Z,11.77
2022-09-13T04:36:59.789Z,12.10
2022-09-13T04:39:26.350Z,11.93
2022-09-13T04:41:54.899Z,11.91
2022-09-13T04:44:23.864Z,10.99
2022-09-13T04:46:51.007Z,12.61
2022-09-13T04:49:20.096Z,12.47
2022-09-13T04:51:46.900Z,12.60
2022-09-13T04:54:16.221Z,13.14
2022-09-13T04:56:47.261Z,13.30
2022-09-13T04:59:14.274Z,11.97
2022-09-13T05:01:41.635Z,13.61
2022-09-13T05:04:09.360Z,13.48
2022-09-13T05:06:36.393Z,13.80
2022-09-13T05:09:04.024Z,13.94
2022-09-13T05:11:31.239Z,13.94
2022-09-13T05:13:59.994Z,13.94
2022-09-13T05:16:29.608Z,13.91
2022-09-13T05:18:57.154Z,13.92
2022-09-13T05:21:24.246Z,14.02
2022-09-13T05:23:52.475Z,14.16
2022-09-13T05:26:19.682Z,14.16
2022-09-13T05:28:46.320Z,13.97
2022-09-13T05:31:18.773Z,14.49
2022-09-13T05:33:48.371Z,14.49
2022-09-13T05:36:15.276Z,11.76
2022-09-13T05:38:41.952Z,15.03
2022-09-13T05:41:08.607Z,14.56
2022-09-13T05:43:36.721Z,15.52
2022-09-13T05:46:05.878Z,15.76
2022-09-13T05:48:33.759Z,15.93
2022-09-13T05:51:06.574Z,16.25
2022-09-13T05:53:34.451Z,16.00
2022-09-13T05:56:01.681Z,16.02
2022-09-13T05:58:28.285Z,16.59
2022-09-13T06:00:56.334Z,16.74
2022-09-13T06:03:24.043Z,16.34
2022-09-13T06:06:05.139Z,16.42
2022-09-13T06:08:33.496Z,16.32
2022-09-13T06:11:02.404Z,17.06
2022-09-13T06:13:30.343Z,16.78
2022-09-13T06:16:00.051Z,17.66
2022-09-13T06:18:27.779Z,17.45
2022-09-13T06:21:07.617Z,17.37
2022-09-13T06:23:34.802Z,18.09
2022-09-13T06:26:05.595Z,18.52
2022-09-13T06:28:37.155Z,18.18
2022-09-13T06:31:09.914Z,18.90
2022-09-13T06:33:38.579Z,18.19
2022-09-13T06:36:10.654Z,19.34
2022-09-13T06:38:38.840Z,19.55
2022-09-13T06:41:12.700Z,19.77
2022-09-13T06:43:40.385Z,19.74
2022-09-13T06:46:12.974Z,19.84
2022-09-13T06:48:42.050Z,20.14
2022-09-13T06:51:14.746Z,19.75
2022-09-13T06:53:42.579Z,19.60
2022-09-13T06:56:13.111Z,19.91
2022-09-13T06:58:41.233Z,20.08
2022-09-13T07:01:11.888Z,20.83
2022-09-13T07:03:40.722Z,20.62
2022-09-13T07:06:13.209Z,20.85
2022-09-13T07:08:40.973Z,20.89
2022-09-13T07:11:09.604Z,20.29
2022-09-13T07:13:36.732Z,20.70
2022-09-13T07:16:05.894Z,21.43
2022-09-13T07:18:32.965Z,21.35
2022-09-13T07:21:10.703Z,20.92
2022-09-13T07:23:39.777Z,21.11
2022-09-13T07:26:07.563Z,21.68
2022-09-13T07:28:40.120Z,21.36
2022-09-13T07:31:12.906Z,21.85
2022-09-13T07:33:41.471Z,21.82
2022-09-13T07:36:09.004Z,21.17
2022-09-13T07:38:36.843Z,21.85
2022-09-13T07:41:06.734Z,22.38
2022-09-13T07:43:34.618Z,21.82
2022-09-13T07:46:05.773Z,22.80
2022-09-13T07:48:34.377Z,22.99
2022-09-13T07:51:06.816Z,22.70
2022-09-13T07:53:35.247Z,23.27
2022-09-13T07:56:05.875Z,23.52
2022-09-13T07:58:34.065Z,23.00
2022-09-13T08:01:12.083Z,22.73
2022-09-13T08:03:38.934Z,22.26
2022-09-13T08:06:06.684Z,22.08
2022-09-13T08:08:34.889Z,22.32
2022-09-13T08:11:03.088Z,21.89
2022-09-13T08:13:30.216Z,22.86
2022-09-13T08:15:56.826Z,23.00
2022-09-13T08:18:23.455Z,23.10
2022-09-13T08:20:50.273Z,22.28
2022-09-13T08:23:17.297Z,22.72
2022-09-13T08:25:43.836Z,23.13
2022-09-13T08:28:15.616Z,22.34
2022-09-13T08:30:43.664Z,23.14
2022-09-13T08:33:11.824Z,22.83
2022-09-13T08:35:38.982Z,23.37
2022-09-13T08:38:08.354Z,23.55
2022-09-13T08:40:41.931Z,23.94
2022-09-13T08:43:30.624Z,24.43
2022-09-13T08:46:02.892Z,25.02
2022-09-13T08:48:40.579Z,25.52
2022-09-13T08:51:23.938Z,25.01
2022-09-13T08:53:51.605Z,24.33
2022-09-13T08:56:53.630Z,24.08
2022-09-13T08:59:36.840Z,24.04
2022-09-13T09:02:22.560Z,22.75
2022-09-13T09:05:04.376Z,23.67
2022-09-13T09:07:42.733Z,23.53
2022-09-13T09:10:23.913Z,23.77
2022-09-13T09:12:55.352Z,23.36
2022-09-13T09:15:26.811Z,23.34
2022-09-13T09:17:53.470Z,23.35
2022-09-13T09:20:20.023Z,23.19
2022-09-13T09:22:48.728Z,23.12
2022-09-13T09:25:15.506Z,22.95
2022-09-13T09:27:42.274Z,22.79
2022-09-13T09:30:15.347Z,22.68
2022-09-13T09:32:50.666Z,22.57
2022-09-13T09:35:53.063Z,22.51
2022-09-13T09:38:42.854Z,22.49
2022-09-13T09:41:34.547Z,22.79
2022-09-13T09:44:33.841Z,22.81
2022-09-13T09:47:10.818Z,23.07
2022-09-13T09:50:00.621Z,23.47
2022-09-13T09:52:35.121Z,23.25
2022-09-13T09:55:26.390Z,24.41
2022-09-13T09:58:06.183Z,24.60
2022-09-13T10:00:39.550Z,24.89
2022-09-13T10:03:17.144Z,24.70
2022-09-13T10:05:43.938Z,25.39
2022-09-13T10:08:31.146Z,24.86
2022-09-13T10:11:02.093Z,24.06
2022-09-13T10:13:37.249Z,25.10
2022-09-13T10:16:07.697Z,25.35
2022-09-13T10:18:45.168Z,25.30
2022-09-13T10:21:18.202Z,25.36
2022-09-13T10:23:47.448Z,23.82
2022-09-13T10:26:15.768Z,25.44
2022-09-13T10:28:54.896Z,25.85
2022-09-13T10:31:27.238Z,25.92
2022-09-13T10:34:01.210Z,24.74
2022-09-13T10:36:52.292Z,25.93
2022-09-13T10:39:22.397Z,26.37
2022-09-13T10:41:56.097Z,26.26
2022-09-13T10:44:40.658Z,25.85
2022-09-13T10:47:13.991Z,25.34
2022-09-13T10:49:49.754Z,25.24
2022-09-13T10:52:35.739Z,25.93
2022-09-13T10:55:31.419Z,26.77
2022-09-13T10:58:07.457Z,27.02
2022-09-13T11:00:42.837Z,26.62
2022-09-13T11:03:12.363Z,26.28
2022-09-13T11:05:50.877Z,25.65
2022-09-13T11:08:32.742Z,25.57
2022-09-13T11:11:16.512Z,25.22
2022-09-13T11:13:49.205Z,26.09
2022-09-13T11:16:18.640Z,26.05
2022-09-13T11:18:52.124Z,25.90
2022-09-13T11:21:18.578Z,25.92
2022-09-13T11:23:58.777Z,24.63
2022-09-13T11:27:05.781Z,25.38
2022-09-13T11:29:51.587Z,25.15
2022-09-13T11:32:26.796Z,24.95
2022-09-13T11:35:17.841Z,25.20
2022-09-13T11:38:15.046Z,25.19
2022-09-13T11:41:23.817Z,24.31
2022-09-13T11:43:52.160Z,25.00
2022-09-13T11:46:39.627Z,25.43
2022-09-13T11:49:49.704Z,24.93
2022-09-13T11:52:49.016Z,25.15
2022-09-13T11:55:26.357Z,24.61
2022-09-13T11:57:56.681Z,24.37
2022-09-13T12:00:32.895Z,25.15
2022-09-13T12:03:11.397Z,25.60
2022-09-13T12:05:45.910Z,25.83
2022-09-13T12:08:23.174Z,26.28
2022-09-13T12:10:58.562Z,26.92
2022-09-13T12:13:29.621Z,26.19
2022-09-13T12:16:09.040Z,26.24
2022-09-13T12:18:50.957Z,26.57
2022-09-13T12:21:25.485Z,25.22
2022-09-13T12:24:01.598Z,25.37
2022-09-13T12:26:48.220Z,25.29
2022-09-13T12:29:18.278Z,25.03
2022-09-13T12:31:44.991Z,24.88
2022-09-13T12:34:26.140Z,24.55
2022-09-13T12:37:10.132Z,23.43
2022-09-13T12:39:42.585Z,24.25
2022-09-13T12:42:40.092Z,23.94
2022-09-13T12:45:35.144Z,23.84
2022-09-13T12:48:24.865Z,24.18
2022-09-13T12:51:18.940Z,24.39
2022-09-13T12:54:07.585Z,24.60
2022-09-13T12:56:46.106Z,24.43
2022-09-13T12:59:18.827Z,24.15
2022-09-13T13:01:49.728Z,23.02
2022-09-13T13:04:19.443Z,23.80
2022-09-13T13:06:56.008Z,24.23
2022-09-13T13:09:42.659Z,24.32
2022-09-13T13:12:35.954Z,23.72
2022-09-13T13:15:25.398Z,23.73
2022-09-13T13:17:54.582Z,24.65
2022-09-13T13:20:52.158Z,24.96
2022-09-13T13:23:21.911Z,24.95
2022-09-13T13:26:03.033Z,25.10
2022-09-13T13:28:45.152Z,25.24
2022-09-13T13:31:31.659Z,24.74
2022-09-13T13:34:10.116Z,25.64
2022-09-13T13:36:39.761Z,26.01
2022-09-13T13:39:33.579Z,26.01
2022-09-13T13:42:13.408Z,25.29
2022-09-13T13:44:43.334Z,27.47
2022-09-13T13:47:09.814Z,28.18
2022-09-13T13:49:39.457Z,26.99
2022-09-13T13:52:09.171Z,28.24
2022-09-13T13:54:41.803Z,28.13
2022-09-13T13:57:26.984Z,30.30
2022-09-13T13:59:58.245Z,26.97
2022-09-13T14:02:42.284Z,27.85
2022-09-13T14:05:24.065Z,29.99
2022-09-13T14:08:21.341Z,30.85
2022-09-13T14:11:03.209Z,29.77
2022-09-13T14:13:50.852Z,29.87
2022-09-13T14:17:10.910Z,29.95
2022-09-13T14:19:47.735Z,29.73
2022-09-13T14:22:25.591Z,29.00
2022-09-13T14:24:57.600Z,28.83
2022-09-13T14:27:33.456Z,27.69
2022-09-13T14:30:04.588Z,26.68
2022-09-13T14:32:42.399Z,25.68
2022-09-13T14:35:38.092Z,22.42
2022-09-13T14:38:20.962Z,24.42
2022-09-13T14:40:53.145Z,24.09
2022-09-13T14:43:25.976Z,23.79
2022-09-13T14:45:57.419Z,23.13
2022-09-13T14:48:37.356Z,23.87
2022-09-13T14:51:14.494Z,23.49
2022-09-13T14:53:45.016Z,23.57
2022-09-13T14:56:20.375Z,23.67
2022-09-13T14:58:52.907Z,23.02
2022-09-13T15:01:31.943Z,23.38
2022-09-13T15:04:00.762Z,23.28
2022-09-13T15:06:31.565Z,23.21
2022-09-13T15:09:21.576Z,21.74
2022-09-13T15:11:54.136Z,23.15
2022-09-13T15:14:39.949Z,23.14
2022-09-13T15:17:06.864Z,23.25
2022-09-13T15:19:47.932Z,23.17
2022-09-13T15:22:20.243Z,23.19
2022-09-13T15:24:52.836Z,22.54
2022-09-13T15:27:47.532Z,21.97
2022-09-13T15:30:25.141Z,23.05
2022-09-13T15:33:25.096Z,21.85
2022-09-13T15:35:53.845Z,22.46
2022-09-13T15:38:32.028Z,22.40
2022-09-13T15:41:02.521Z,22.78
2022-09-13T15:43:31.025Z,22.27
2022-09-13T15:45:59.372Z,22.43
2022-09-13T15:48:33.425Z,22.45
2022-09-13T15:51:11.926Z,20.05
2022-09-13T15:53:40.811Z,21.92
2022-09-13T15:56:08.952Z,22.15
2022-09-13T15:58:36.453Z,22.05
2022-09-13T16:01:04.116Z,21.78
2022-09-13T16:03:31.641Z,21.78
2022-09-13T16:05:59.745Z,21.88
2022-09-13T16:08:26.292Z,21.94
2022-09-13T16:10:52.935Z,21.92
2022-09-13T16:13:19.749Z,21.65
2022-09-13T16:15:46.395Z,21.80
2022-09-13T16:18:16.431Z,21.62
2022-09-13T16:20:43.906Z,21.59
2022-09-13T16:23:10.653Z,21.49
2022-09-13T16:25:38.509Z,21.49
2022-09-13T16:28:06.711Z,20.40
2022-09-13T16:30:33.857Z,21.23
2022-09-13T16:33:01.076Z,21.06
2022-09-13T16:35:30.215Z,21.03
2022-09-13T16:37:57.063Z,20.94
2022-09-13T16:40:23.992Z,18.52
2022-09-13T16:42:51.062Z,20.69
2022-09-13T16:45:17.959Z,20.15
2022-09-13T16:47:44.716Z,20.49
2022-09-13T16:50:11.422Z,20.11
2022-09-13T16:52:38.118Z,20.02
2022-09-13T16:55:05.572Z,19.71
2022-09-13T16:57:32.253Z,19.45
2022-09-13T16:59:59.497Z,19.67
2022-09-13T17:02:27.364Z,19.50
2022-09-13T17:04:54.269Z,19.46
2022-09-13T17:07:20.843Z,19.25
2022-09-13T17:09:47.474Z,19.46
2022-09-13T17:12:14.523Z,19.05
2022-09-13T17:14:47.609Z,18.58
2022-09-13T17:17:16.403Z,18.85
2022-09-13T17:19:44.688Z,17.97
2022-09-13T17:22:11.813Z,18.59
2022-09-13T17:24:39.461Z,18.44
2022-09-13T17:27:06.862Z,18.43
2022-09-13T17:29:35.327Z,18.52
2022-09-13T17:32:04.639Z,18.43
2022-09-13T17:34:33.986Z,18.35
2022-09-13T17:37:01.276Z,18.23
2022-09-13T17:39:27.805Z,17.63
2022-09-13T17:41:54.806Z,17.80
2022-09-13T17:44:21.378Z,17.62
2022-09-13T17:46:48.053Z,17.25
2022-09-13T17:49:14.767Z,17.22
2022-09-13T17:51:41.628Z,17.32
2022-09-13T17:54:11.775Z,17.23
2022-09-13T17:56:42.044Z,17.15
2022-09-13T17:59:20.540Z,17.02
2022-09-13T18:01:49.706Z,16.84
2022-09-13T18:04:18.526Z,16.93
2022-09-13T18:06:45.195Z,14.51
2022-09-13T18:09:14.013Z,16.70
2022-09-13T18:11:41.104Z,16.64
2022-09-13T18:14:12.387Z,16.07
2022-09-13T18:16:39.362Z,16.32
2022-09-13T18:19:05.956Z,16.39
2022-09-13T18:21:32.822Z,16.13
2022-09-13T18:24:01.619Z,16.34
2022-09-13T18:26:30.048Z,16.14
2022-09-13T18:29:01.721Z,16.23
2022-09-13T18:31:30.317Z,16.13
2022-09-13T18:34:00.233Z,16.21
2022-09-13T18:36:28.460Z,16.15
2022-09-13T18:38:56.605Z,16.10
2022-09-13T18:41:27.564Z,15.98
2022-09-13T18:43:56.102Z,16.06
2022-09-13T18:46:28.986Z,16.01
2022-09-13T18:48:57.650Z,15.60
2022-09-13T18:51:36.379Z,16.01
2022-09-13T18:54:04.643Z,15.18
2022-09-13T18:56:32.845Z,16.04
2022-09-13T18:59:01.827Z,16.03
2022-09-13T19:01:31.684Z,16.11
2022-09-13T19:04:04.232Z,15.86
2022-09-13T19:06:39.208Z,15.96
2022-09-13T19:09:08.249Z,15.92
2022-09-13T19:11:47.402Z,15.95
2022-09-13T19:14:26.025Z,15.79
2022-09-13T19:16:54.530Z,15.78
2022-09-13T19:19:21.317Z,15.12
2022-09-13T19:21:48.824Z,15.62
2022-09-13T19:24:18.794Z,15.26
2022-09-13T19:26:48.597Z,14.89
2022-09-13T19:29:17.813Z,15.09
2022-09-13T19:31:50.058Z,15.25
2022-09-13T19:34:18.995Z,15.23
2022-09-13T19:36:45.648Z,14.77
2022-09-13T19:39:12.856Z,15.21
2022-09-13T19:41:40.391Z,15.18
2022-09-13T19:44:08.507Z,15.02
2022-09-13T19:46:38.166Z,14.85
2022-09-13T19:49:05.828Z,14.80
2022-09-13T19:51:35.092Z,14.74
2022-09-13T19:54:02.539Z,13.91
2022-09-13T19:56:35.311Z,14.52
2022-09-13T19:59:02.491Z,14.56
2022-09-13T20:01:31.662Z,14.67
2022-09-13T20:04:01.319Z,14.58
2022-09-13T20:06:30.288Z,14.40
2022-09-13T20:09:00.958Z,14.51
2022-09-13T20:11:29.093Z,14.53
2022-09-13T20:13:59.185Z,14.28
2022-09-13T20:16:32.120Z,14.44
2022-09-13T20:18:58.775Z,12.40
2022-09-13T20:21:27.035Z,14.31
2022-09-13T20:23:56.163Z,11.87
2022-09-13T20:26:27.468Z,14.22
2022-09-13T20:28:57.790Z,14.24
2022-09-13T20:31:25.082Z,13.71
2022-09-13T20:33:56.531Z,14.17
2022-09-13T20:36:24.348Z,14.15
2022-09-13T20:38:53.142Z,13.83
2022-09-13T20:41:21.152Z,13.88
2022-09-13T20:43:51.047Z,13.76
2022-09-13T20:46:19.414Z,13.81
2022-09-13T20:48:46.496Z,13.81
2022-09-13T20:51:20.825Z,13.80
2022-09-13T20:53:48.020Z,13.66
2022-09-13T20:56:17.309Z,13.64
2022-09-13T20:58:45.356Z,13.49
2022-09-13T21:01:21.071Z,13.39
2022-09-13T21:03:50.402Z,13.46
2022-09-13T21:06:19.559Z,12.78
2022-09-13T21:08:49.589Z,13.49
2022-09-13T21:11:22.234Z,13.43
2022-09-13T21:13:54.385Z,13.36
2022-09-13T21:16:24.126Z,13.18
2022-09-13T21:18:52.358Z,12.52
2022-09-13T21:21:21.554Z,13.13
2022-09-13T21:23:48.513Z,13.48
2022-09-13T21:26:19.832Z,13.48
2022-09-13T21:28:47.056Z,13.45
2022-09-13T21:31:25.737Z,13.43
2022-09-13T21:33:56.722Z,13.44
2022-09-13T21:36:23.797Z,13.41
2022-09-13T21:38:51.562Z,13.15
2022-09-13T21:41:18.801Z,13.42
2022-09-13T21:43:46.055Z,13.45
2022-09-13T21:46:27.431Z,13.00
2022-09-13T21:48:58.997Z,13.41
2022-09-13T21:51:29.761Z,13.49
2022-09-13T21:53:59.201Z,13.50
2022-09-13T21:56:28.995Z,13.43
2022-09-13T21:58:58.371Z,13.40
2022-09-13T22:01:27.260Z,13.49
2022-09-13T22:03:54.111Z,13.48
2022-09-13T22:06:22.470Z,13.29
2022-09-13T22:08:55.493Z,13.33
2022-09-13T22:11:27.980Z,13.22
2022-09-13T22:13:56.544Z,13.00
2022-09-13T22:16:26.021Z,13.08
2022-09-13T22:18:56.274Z,13.18
2022-09-13T22:21:30.127Z,13.10
2022-09-13T22:23:59.810Z,13.02
2022-09-13T22:26:32.951Z,13.04
2022-09-13T22:28:59.923Z,13.07
2022-09-13T22:31:33.667Z,13.12
2022-09-13T22:34:02.273Z,13.09
2022-09-13T22:36:29.589Z,12.52
2022-09-13T22:38:56.519Z,12.91
2022-09-13T22:41:25.564Z,13.02
2022-09-13T22:43:52.545Z,12.77
2022-09-13T22:46:28.559Z,12.39
2022-09-13T22:48:55.827Z,12.31
2022-09-13T22:51:23.381Z,12.83
2022-09-13T22:53:51.295Z,11.95
2022-09-13T22:56:24.366Z,12.60
2022-09-13T22:58:55.703Z,12.48
2022-09-13T23:01:23.220Z,12.53
2022-09-13T23:03:50.276Z,12.61
2022-09-13T23:06:19.509Z,12.50
2022-09-13T23:08:48.227Z,12.43
2022-09-13T23:11:21.429Z,12.38
2022-09-13T23:13:49.922Z,12.34
2022-09-13T23:16:20.638Z,12.29
2022-09-13T23:18:47.723Z,12.07
2022-09-13T23:21:17.612Z,11.87
2022-09-13T23:23:44.680Z,12.23
2022-09-13T23:26:17.586Z,12.33
2022-09-13T23:28:46.317Z,12.34
2022-09-13T23:31:19.275Z,12.36
2022-09-13T23:33:51.863Z,12.38
2022-09-13T23:36:27.276Z,12.38
2022-09-13T23:38:56.617Z,12.26
2022-09-13T23:41:24.744Z,12.32
2022-09-13T23:43:52.721Z,11.94
2022-09-13T23:46:19.917Z,9.66
2022-09-13T23:48:46.865Z,12.10
2022-09-13T23:51:19.268Z,12.30
2022-09-13T23:53:46.683Z,12.31
2022-09-13T23:56:14.102Z,11.23
2022-09-13T23:58:40.945Z,12.21
